Strona główna
METAR-TAF:

METAR-TAF

Lotnisko :

Mersing, Malezja

Szerokość geograficzna: 02-23-00N, Długość geograficzna: 103-51-34E, wysokość: 3 m

Aktualna obserwacja pogody

Raport powstał 27 minut temu, godzina 08:00 UTC
Wiatr 7 kt z kierunków zmiennych
Temperatura 28°C
Wilgotność 84%
Ciśnienie 1008 hPa
Widzialność: 7000 m
Mało chmury na wysokości 1700 ft, Cumulonimbus.
Rozproszone chmury na wysokości 2500 ft
przelotny w pobliże

METAR: WMAU 040800Z VRB07KT 7000 VCSH FEW017CB SCT025 28/25 Q1008

czas: 16:27 (08:27 UTC)


TAF: brakujący

Obserwacja i prognoza pogody dla ponad 4000 lotnisk (raport METAR i TAF).

Dostępne stacje oznaczono żółtymi i czerwonymi punktami na mapie.

Najedź kursorem aby zobaczyć nazwę stacji.

Kliknij aby zobaczyć obserwacje i prognozy pogody.

Aby zmienić mapę: kliknij na zielony przycisk z czarnym krzyżykiem, aby powiększyć; na zielony przycisk z myślnikiem, aby pomniejszyć; na zielone strzałki, aby przejść do map sąsiednich.


METAR-TAF: